sensor_id;sensor_type;location;lat;lon;timestamp;P1;durP1;ratioP1;P2;durP2;ratioP2
54271;SDS011;40184;53.362;5.216;2022-08-27T00:00:19;5.10;;;2.60;;
54271;SDS011;40184;53.362;5.216;2022-08-27T00:02:46;4.30;;;2.55;;
54271;SDS011;40184;53.362;5.216;2022-08-27T00:05:13;7.53;;;2.92;;
54271;SDS011;40184;53.362;5.216;2022-08-27T00:07:40;8.57;;;2.40;;
54271;SDS011;40184;53.362;5.216;2022-08-27T00:10:07;5.35;;;2.47;;
54271;SDS011;40184;53.362;5.216;2022-08-27T00:12:35;3.17;;;2.35;;
54271;SDS011;40184;53.362;5.216;2022-08-27T00:15:00;6.35;;;2.40;;
54271;SDS011;40184;53.362;5.216;2022-08-27T00:17:27;4.07;;;2.25;;
54271;SDS011;40184;53.362;5.216;2022-08-27T00:19:53;7.05;;;2.42;;
54271;SDS011;40184;53.362;5.216;2022-08-27T00:22:18;3.67;;;2.05;;
54271;SDS011;40184;53.362;5.216;2022-08-27T00:24:44;5.88;;;2.05;;
54271;SDS011;40184;53.362;5.216;2022-08-27T00:27:10;4.25;;;1.80;;
54271;SDS011;40184;53.362;5.216;2022-08-27T00:29:35;3.97;;;2.63;;
54271;SDS011;40184;53.362;5.216;2022-08-27T00:32:01;7.47;;;2.28;;
54271;SDS011;40184;53.362;5.216;2022-08-27T00:34:27;10.55;;;1.80;;
54271;SDS011;40184;53.362;5.216;2022-08-27T00:36:53;4.78;;;1.40;;
54271;SDS011;40184;53.362;5.216;2022-08-27T00:39:19;4.63;;;2.47;;
54271;SDS011;40184;53.362;5.216;2022-08-27T00:41:45;7.82;;;2.22;;
54271;SDS011;40184;53.362;5.216;2022-08-27T00:44:12;5.85;;;1.90;;
54271;SDS011;40184;53.362;5.216;2022-08-27T00:46:43;2.38;;;1.65;;
54271;SDS011;40184;53.362;5.216;2022-08-27T00:50:10;5.72;;;1.55;;
54271;SDS011;40184;53.362;5.216;2022-08-27T00:52:23;3.08;;;1.70;;
54271;SDS011;40184;53.362;5.216;2022-08-27T00:54:55;3.75;;;1.80;;
54271;SDS011;40184;53.362;5.216;2022-08-27T00:57:24;3.03;;;1.50;;
54271;SDS011;40184;53.362;5.216;2022-08-27T00:59:51;5.10;;;1.40;;
54271;SDS011;40184;53.362;5.216;2022-08-27T01:02:17;4.78;;;1.80;;
54271;SDS011;40184;53.362;5.216;2022-08-27T01:04:43;3.78;;;1.40;;
54271;SDS011;40184;53.362;5.216;2022-08-27T01:07:12;4.47;;;1.40;;
54271;SDS011;40184;53.362;5.216;2022-08-27T01:09:39;4.75;;;1.40;;
54271;SDS011;40184;53.362;5.216;2022-08-27T01:12:06;3.35;;;1.42;;
54271;SDS011;40184;53.362;5.216;2022-08-27T01:14:33;5.32;;;1.27;;
54271;SDS011;40184;53.362;5.216;2022-08-27T01:16:59;3.80;;;1.25;;
54271;SDS011;40184;53.362;5.216;2022-08-27T01:22:29;4.75;;;1.50;;
54271;SDS011;40184;53.362;5.216;2022-08-27T01:25:16;3.38;;;1.48;;
54271;SDS011;40184;53.362;5.216;2022-08-27T01:27:44;5.22;;;1.27;;
54271;SDS011;40184;53.362;5.216;2022-08-27T01:30:11;3.08;;;1.20;;
54271;SDS011;40184;53.362;5.216;2022-08-27T01:32:40;5.45;;;1.58;;
54271;SDS011;40184;53.362;5.216;2022-08-27T01:35:07;6.70;;;1.33;;
54271;SDS011;40184;53.362;5.216;2022-08-27T01:37:35;3.47;;;1.25;;
54271;SDS011;40184;53.362;5.216;2022-08-27T01:40:02;6.13;;;1.83;;
54271;SDS011;40184;53.362;5.216;2022-08-27T01:42:31;5.63;;;1.50;;
54271;SDS011;40184;53.362;5.216;2022-08-27T01:45:00;11.07;;;1.60;;
54271;SDS011;40184;53.362;5.216;2022-08-27T01:47:29;4.47;;;1.33;;
54271;SDS011;40184;53.362;5.216;2022-08-27T01:49:55;3.45;;;1.20;;
54271;SDS011;40184;53.362;5.216;2022-08-27T01:52:22;4.60;;;1.27;;
54271;SDS011;40184;53.362;5.216;2022-08-27T01:54:50;4.82;;;1.73;;
54271;SDS011;40184;53.362;5.216;2022-08-27T01:57:16;3.80;;;1.30;;
54271;SDS011;40184;53.362;5.216;2022-08-27T01:59:43;4.57;;;1.00;;
54271;SDS011;40184;53.362;5.216;2022-08-27T02:02:10;3.58;;;1.42;;
54271;SDS011;40184;53.362;5.216;2022-08-27T02:04:38;4.55;;;1.27;;
54271;SDS011;40184;53.362;5.216;2022-08-27T02:07:04;5.80;;;1.60;;
54271;SDS011;40184;53.362;5.216;2022-08-27T02:09:31;5.43;;;1.15;;
54271;SDS011;40184;53.362;5.216;2022-08-27T02:11:57;4.57;;;1.25;;
54271;SDS011;40184;53.362;5.216;2022-08-27T02:14:24;5.70;;;1.85;;
54271;SDS011;40184;53.362;5.216;2022-08-27T02:16:51;4.28;;;1.35;;
54271;SDS011;40184;53.362;5.216;2022-08-27T02:19:16;4.88;;;1.45;;
54271;SDS011;40184;53.362;5.216;2022-08-27T02:21:42;6.78;;;2.10;;
54271;SDS011;40184;53.362;5.216;2022-08-27T02:24:08;11.32;;;3.08;;
54271;SDS011;40184;53.362;5.216;2022-08-27T02:26:34;3.90;;;1.30;;
54271;SDS011;40184;53.362;5.216;2022-08-27T02:28:59;6.80;;;1.77;;
54271;SDS011;40184;53.362;5.216;2022-08-27T02:31:25;4.82;;;1.77;;
54271;SDS011;40184;53.362;5.216;2022-08-27T02:33:51;4.95;;;1.20;;
54271;SDS011;40184;53.362;5.216;2022-08-27T02:36:17;5.45;;;1.55;;
54271;SDS011;40184;53.362;5.216;2022-08-27T02:38:43;8.52;;;1.80;;
54271;SDS011;40184;53.362;5.216;2022-08-27T02:41:09;6.75;;;1.80;;
54271;SDS011;40184;53.362;5.216;2022-08-27T02:43:34;7.10;;;1.65;;
54271;SDS011;40184;53.362;5.216;2022-08-27T02:46:00;9.30;;;1.80;;
54271;SDS011;40184;53.362;5.216;2022-08-27T02:48:27;4.90;;;1.95;;
54271;SDS011;40184;53.362;5.216;2022-08-27T02:50:53;11.23;;;1.60;;
54271;SDS011;40184;53.362;5.216;2022-08-27T02:53:18;4.60;;;1.52;;
54271;SDS011;40184;53.362;5.216;2022-08-27T02:55:44;8.25;;;1.42;;
54271;SDS011;40184;53.362;5.216;2022-08-27T02:58:10;3.72;;;1.33;;
54271;SDS011;40184;53.362;5.216;2022-08-27T03:00:41;4.90;;;1.42;;
54271;SDS011;40184;53.362;5.216;2022-08-27T03:03:07;4.82;;;1.70;;
54271;SDS011;40184;53.362;5.216;2022-08-27T03:05:35;2.75;;;1.00;;
54271;SDS011;40184;53.362;5.216;2022-08-27T03:08:01;6.40;;;2.15;;
54271;SDS011;40184;53.362;5.216;2022-08-27T03:10:28;7.88;;;2.38;;
54271;SDS011;40184;53.362;5.216;2022-08-27T03:12:54;5.15;;;1.27;;
54271;SDS011;40184;53.362;5.216;2022-08-27T03:15:20;3.85;;;1.50;;
54271;SDS011;40184;53.362;5.216;2022-08-27T03:17:46;4.90;;;1.60;;
54271;SDS011;40184;53.362;5.216;2022-08-27T03:20:30;7.05;;;1.83;;
54271;SDS011;40184;53.362;5.216;2022-08-27T03:22:57;5.22;;;2.13;;
54271;SDS011;40184;53.362;5.216;2022-08-27T03:25:23;3.53;;;1.55;;
54271;SDS011;40184;53.362;5.216;2022-08-27T03:27:49;9.25;;;1.63;;
54271;SDS011;40184;53.362;5.216;2022-08-27T03:30:17;5.50;;;1.67;;
54271;SDS011;40184;53.362;5.216;2022-08-27T03:32:45;6.43;;;1.80;;
54271;SDS011;40184;53.362;5.216;2022-08-27T03:35:11;7.03;;;1.48;;
54271;SDS011;40184;53.362;5.216;2022-08-27T03:37:37;3.90;;;1.30;;
54271;SDS011;40184;53.362;5.216;2022-08-27T03:40:03;8.65;;;2.70;;
54271;SDS011;40184;53.362;5.216;2022-08-27T03:42:30;4.50;;;1.95;;
54271;SDS011;40184;53.362;5.216;2022-08-27T03:44:56;5.68;;;2.20;;
54271;SDS011;40184;53.362;5.216;2022-08-27T03:47:21;6.30;;;1.70;;
54271;SDS011;40184;53.362;5.216;2022-08-27T03:49:47;5.97;;;2.03;;
54271;SDS011;40184;53.362;5.216;2022-08-27T03:52:14;5.03;;;1.95;;
54271;SDS011;40184;53.362;5.216;2022-08-27T03:54:40;6.85;;;1.63;;
54271;SDS011;40184;53.362;5.216;2022-08-27T03:57:06;7.68;;;2.00;;
54271;SDS011;40184;53.362;5.216;2022-08-27T03:59:32;5.70;;;1.20;;
54271;SDS011;40184;53.362;5.216;2022-08-27T04:01:58;5.25;;;1.60;;
54271;SDS011;40184;53.362;5.216;2022-08-27T04:04:24;6.18;;;1.38;;
54271;SDS011;40184;53.362;5.216;2022-08-27T04:06:50;4.18;;;1.90;;
54271;SDS011;40184;53.362;5.216;2022-08-27T04:09:15;7.78;;;1.95;;
54271;SDS011;40184;53.362;5.216;2022-08-27T04:11:41;4.22;;;1.40;;
54271;SDS011;40184;53.362;5.216;2022-08-27T04:14:07;3.30;;;1.25;;
54271;SDS011;40184;53.362;5.216;2022-08-27T04:16:33;6.55;;;1.48;;
54271;SDS011;40184;53.362;5.216;2022-08-27T04:19:00;4.88;;;1.30;;
54271;SDS011;40184;53.362;5.216;2022-08-27T04:21:27;9.98;;;2.08;;
54271;SDS011;40184;53.362;5.216;2022-08-27T04:23:54;4.97;;;1.85;;
54271;SDS011;40184;53.362;5.216;2022-08-27T04:26:20;4.40;;;1.38;;
54271;SDS011;40184;53.362;5.216;2022-08-27T04:28:46;11.00;;;2.67;;
54271;SDS011;40184;53.362;5.216;2022-08-27T04:31:12;4.18;;;1.65;;
54271;SDS011;40184;53.362;5.216;2022-08-27T04:33:38;5.32;;;1.67;;
54271;SDS011;40184;53.362;5.216;2022-08-27T04:36:05;8.80;;;1.48;;
54271;SDS011;40184;53.362;5.216;2022-08-27T04:38:33;3.53;;;1.35;;
54271;SDS011;40184;53.362;5.216;2022-08-27T04:41:01;6.45;;;1.60;;
54271;SDS011;40184;53.362;5.216;2022-08-27T04:43:56;3.88;;;1.40;;
54271;SDS011;40184;53.362;5.216;2022-08-27T04:46:27;4.70;;;1.40;;
54271;SDS011;40184;53.362;5.216;2022-08-27T04:48:58;3.80;;;1.95;;
54271;SDS011;40184;53.362;5.216;2022-08-27T04:51:26;7.67;;;1.93;;
54271;SDS011;40184;53.362;5.216;2022-08-27T04:53:53;6.40;;;1.70;;
54271;SDS011;40184;53.362;5.216;2022-08-27T04:56:19;9.27;;;2.80;;
54271;SDS011;40184;53.362;5.216;2022-08-27T04:58:47;6.43;;;2.03;;
54271;SDS011;40184;53.362;5.216;2022-08-27T05:01:21;6.28;;;1.38;;
54271;SDS011;40184;53.362;5.216;2022-08-27T05:03:48;3.72;;;1.52;;
54271;SDS011;40184;53.362;5.216;2022-08-27T05:06:14;8.07;;;2.75;;
54271;SDS011;40184;53.362;5.216;2022-08-27T05:08:40;9.43;;;2.05;;
54271;SDS011;40184;53.362;5.216;2022-08-27T05:11:06;9.18;;;2.20;;
54271;SDS011;40184;53.362;5.216;2022-08-27T05:13:34;7.95;;;2.00;;
54271;SDS011;40184;53.362;5.216;2022-08-27T05:16:03;7.95;;;2.15;;
54271;SDS011;40184;53.362;5.216;2022-08-27T05:18:31;6.18;;;1.80;;
54271;SDS011;40184;53.362;5.216;2022-08-27T05:20:57;7.13;;;1.52;;
54271;SDS011;40184;53.362;5.216;2022-08-27T05:23:24;6.63;;;1.80;;
54271;SDS011;40184;53.362;5.216;2022-08-27T05:25:52;11.13;;;2.80;;
54271;SDS011;40184;53.362;5.216;2022-08-27T05:28:19;7.15;;;1.40;;
54271;SDS011;40184;53.362;5.216;2022-08-27T05:30:47;6.88;;;1.60;;
54271;SDS011;40184;53.362;5.216;2022-08-27T05:33:15;2.80;;;1.23;;
54271;SDS011;40184;53.362;5.216;2022-08-27T05:35:44;5.85;;;1.67;;
54271;SDS011;40184;53.362;5.216;2022-08-27T05:38:15;5.72;;;2.05;;
54271;SDS011;40184;53.362;5.216;2022-08-27T05:40:42;7.57;;;2.45;;
54271;SDS011;40184;53.362;5.216;2022-08-27T05:43:09;5.20;;;1.55;;
54271;SDS011;40184;53.362;5.216;2022-08-27T05:45:41;5.65;;;1.67;;
54271;SDS011;40184;53.362;5.216;2022-08-27T05:48:08;6.18;;;1.40;;
54271;SDS011;40184;53.362;5.216;2022-08-27T05:50:41;7.82;;;1.92;;
54271;SDS011;40184;53.362;5.216;2022-08-27T05:53:09;7.78;;;1.25;;
54271;SDS011;40184;53.362;5.216;2022-08-27T05:55:37;2.88;;;1.17;;
54271;SDS011;40184;53.362;5.216;2022-08-27T05:58:07;5.97;;;1.93;;
54271;SDS011;40184;53.362;5.216;2022-08-27T06:00:54;4.45;;;1.98;;
54271;SDS011;40184;53.362;5.216;2022-08-27T06:03:32;4.78;;;1.48;;
54271;SDS011;40184;53.362;5.216;2022-08-27T06:06:06;4.43;;;1.20;;
54271;SDS011;40184;53.362;5.216;2022-08-27T06:08:33;4.80;;;1.38;;
54271;SDS011;40184;53.362;5.216;2022-08-27T06:10:59;8.27;;;2.72;;
54271;SDS011;40184;53.362;5.216;2022-08-27T06:13:26;11.15;;;2.10;;
54271;SDS011;40184;53.362;5.216;2022-08-27T06:16:03;4.07;;;1.38;;
54271;SDS011;40184;53.362;5.216;2022-08-27T06:18:30;7.50;;;2.22;;
54271;SDS011;40184;53.362;5.216;2022-08-27T06:20:57;5.28;;;1.30;;
54271;SDS011;40184;53.362;5.216;2022-08-27T06:23:22;5.13;;;2.42;;
54271;SDS011;40184;53.362;5.216;2022-08-27T06:25:49;7.03;;;1.80;;
54271;SDS011;40184;53.362;5.216;2022-08-27T06:28:15;4.18;;;1.45;;
54271;SDS011;40184;53.362;5.216;2022-08-27T06:30:44;5.05;;;1.98;;
54271;SDS011;40184;53.362;5.216;2022-08-27T06:33:09;7.20;;;1.48;;
54271;SDS011;40184;53.362;5.216;2022-08-27T06:35:35;6.22;;;1.42;;
54271;SDS011;40184;53.362;5.216;2022-08-27T06:38:01;5.95;;;1.48;;
54271;SDS011;40184;53.362;5.216;2022-08-27T06:40:27;3.53;;;1.10;;
54271;SDS011;40184;53.362;5.216;2022-08-27T06:42:53;4.00;;;1.40;;
54271;SDS011;40184;53.362;5.216;2022-08-27T06:45:18;9.60;;;1.95;;
54271;SDS011;40184;53.362;5.216;2022-08-27T06:47:44;4.32;;;1.08;;
54271;SDS011;40184;53.362;5.216;2022-08-27T06:50:10;4.50;;;1.52;;
54271;SDS011;40184;53.362;5.216;2022-08-27T06:52:36;4.30;;;1.02;;
54271;SDS011;40184;53.362;5.216;2022-08-27T06:55:02;3.63;;;1.17;;
54271;SDS011;40184;53.362;5.216;2022-08-27T06:57:27;6.72;;;1.25;;
54271;SDS011;40184;53.362;5.216;2022-08-27T06:59:53;5.38;;;1.40;;
54271;SDS011;40184;53.362;5.216;2022-08-27T07:02:19;6.18;;;1.20;;
54271;SDS011;40184;53.362;5.216;2022-08-27T07:04:44;3.80;;;1.25;;
54271;SDS011;40184;53.362;5.216;2022-08-27T07:07:11;4.38;;;1.13;;
54271;SDS011;40184;53.362;5.216;2022-08-27T07:09:37;8.70;;;1.35;;
54271;SDS011;40184;53.362;5.216;2022-08-27T07:12:04;4.93;;;1.38;;
54271;SDS011;40184;53.362;5.216;2022-08-27T07:14:30;6.63;;;1.55;;
54271;SDS011;40184;53.362;5.216;2022-08-27T07:16:56;4.95;;;1.00;;
54271;SDS011;40184;53.362;5.216;2022-08-27T07:19:23;4.88;;;1.38;;
54271;SDS011;40184;53.362;5.216;2022-08-27T07:21:49;3.10;;;1.05;;
54271;SDS011;40184;53.362;5.216;2022-08-27T07:24:14;5.47;;;1.50;;
54271;SDS011;40184;53.362;5.216;2022-08-27T07:26:41;6.22;;;1.50;;
54271;SDS011;40184;53.362;5.216;2022-08-27T07:29:08;5.35;;;1.60;;
54271;SDS011;40184;53.362;5.216;2022-08-27T07:31:36;3.35;;;1.10;;
54271;SDS011;40184;53.362;5.216;2022-08-27T07:34:03;6.88;;;1.48;;
54271;SDS011;40184;53.362;5.216;2022-08-27T07:36:29;6.05;;;1.42;;
54271;SDS011;40184;53.362;5.216;2022-08-27T07:38:56;6.18;;;1.45;;
54271;SDS011;40184;53.362;5.216;2022-08-27T07:41:22;5.45;;;1.35;;
54271;SDS011;40184;53.362;5.216;2022-08-27T07:43:47;3.05;;;0.80;;
54271;SDS011;40184;53.362;5.216;2022-08-27T07:46:32;5.90;;;1.40;;
54271;SDS011;40184;53.362;5.216;2022-08-27T07:48:58;3.75;;;1.35;;
54271;SDS011;40184;53.362;5.216;2022-08-27T07:51:24;10.15;;;1.67;;
54271;SDS011;40184;53.362;5.216;2022-08-27T07:53:51;3.80;;;1.55;;
54271;SDS011;40184;53.362;5.216;2022-08-27T07:56:18;3.47;;;1.33;;
54271;SDS011;40184;53.362;5.216;2022-08-27T07:58:45;5.15;;;1.50;;
54271;SDS011;40184;53.362;5.216;2022-08-27T08:01:11;9.82;;;2.03;;
54271;SDS011;40184;53.362;5.216;2022-08-27T08:03:37;5.88;;;2.35;;
54271;SDS011;40184;53.362;5.216;2022-08-27T08:06:04;6.38;;;1.40;;
54271;SDS011;40184;53.362;5.216;2022-08-27T08:08:32;6.72;;;1.40;;
54271;SDS011;40184;53.362;5.216;2022-08-27T08:10:59;5.00;;;1.20;;
54271;SDS011;40184;53.362;5.216;2022-08-27T08:13:26;11.02;;;1.33;;
54271;SDS011;40184;53.362;5.216;2022-08-27T08:15:52;2.90;;;1.42;;
54271;SDS011;40184;53.362;5.216;2022-08-27T08:18:17;4.05;;;1.20;;
54271;SDS011;40184;53.362;5.216;2022-08-27T08:20:43;4.68;;;1.20;;
54271;SDS011;40184;53.362;5.216;2022-08-27T08:23:09;6.82;;;1.35;;
54271;SDS011;40184;53.362;5.216;2022-08-27T08:25:34;4.38;;;1.55;;
54271;SDS011;40184;53.362;5.216;2022-08-27T08:28:00;7.85;;;1.63;;
54271;SDS011;40184;53.362;5.216;2022-08-27T08:30:26;6.72;;;1.13;;
54271;SDS011;40184;53.362;5.216;2022-08-27T08:32:52;4.47;;;1.38;;
54271;SDS011;40184;53.362;5.216;2022-08-27T08:35:17;8.38;;;1.25;;
54271;SDS011;40184;53.362;5.216;2022-08-27T08:37:43;5.38;;;0.80;;
54271;SDS011;40184;53.362;5.216;2022-08-27T08:40:09;3.78;;;1.23;;
54271;SDS011;40184;53.362;5.216;2022-08-27T08:42:43;6.80;;;1.50;;
54271;SDS011;40184;53.362;5.216;2022-08-27T08:45:15;3.10;;;1.10;;
54271;SDS011;40184;53.362;5.216;2022-08-27T08:47:49;2.78;;;1.00;;
54271;SDS011;40184;53.362;5.216;2022-08-27T08:50:19;6.40;;;2.00;;
54271;SDS011;40184;53.362;5.216;2022-08-27T08:52:58;5.80;;;1.42;;
54271;SDS011;40184;53.362;5.216;2022-08-27T09:00:58;5.75;;;1.20;;
54271;SDS011;40184;53.362;5.216;2022-08-27T09:03:27;20.08;;;2.22;;
54271;SDS011;40184;53.362;5.216;2022-08-27T09:05:58;6.35;;;1.40;;
54271;SDS011;40184;53.362;5.216;2022-08-27T09:08:47;7.30;;;1.50;;
54271;SDS011;40184;53.362;5.216;2022-08-27T09:14:14;6.43;;;1.45;;
54271;SDS011;40184;53.362;5.216;2022-08-27T09:16:48;7.95;;;1.88;;
54271;SDS011;40184;53.362;5.216;2022-08-27T09:19:14;6.97;;;1.30;;
54271;SDS011;40184;53.362;5.216;2022-08-27T09:24:14;5.28;;;2.00;;
54271;SDS011;40184;53.362;5.216;2022-08-27T09:26:46;5.72;;;1.58;;
54271;SDS011;40184;53.362;5.216;2022-08-27T09:29:14;10.38;;;1.90;;
54271;SDS011;40184;53.362;5.216;2022-08-27T09:34:12;5.97;;;1.63;;
54271;SDS011;40184;53.362;5.216;2022-08-27T09:36:47;6.15;;;1.83;;
54271;SDS011;40184;53.362;5.216;2022-08-27T09:39:33;2.53;;;1.05;;
54271;SDS011;40184;53.362;5.216;2022-08-27T09:42:04;9.45;;;2.28;;
54271;SDS011;40184;53.362;5.216;2022-08-27T09:44:30;10.95;;;1.67;;
54271;SDS011;40184;53.362;5.216;2022-08-27T09:47:00;8.95;;;2.03;;
54271;SDS011;40184;53.362;5.216;2022-08-27T09:49:27;5.13;;;1.38;;
54271;SDS011;40184;53.362;5.216;2022-08-27T09:51:54;5.60;;;0.93;;
54271;SDS011;40184;53.362;5.216;2022-08-27T09:54:38;6.68;;;1.27;;
54271;SDS011;40184;53.362;5.216;2022-08-27T09:57:06;7.80;;;2.17;;
54271;SDS011;40184;53.362;5.216;2022-08-27T09:59:39;7.30;;;2.15;;
54271;SDS011;40184;53.362;5.216;2022-08-27T10:02:16;6.72;;;1.13;;
54271;SDS011;40184;53.362;5.216;2022-08-27T10:12:50;7.35;;;1.77;;
54271;SDS011;40184;53.362;5.216;2022-08-27T10:15:20;10.25;;;2.50;;
54271;SDS011;40184;53.362;5.216;2022-08-27T10:17:51;5.93;;;1.48;;
54271;SDS011;40184;53.362;5.216;2022-08-27T10:23:32;5.60;;;1.80;;
54271;SDS011;40184;53.362;5.216;2022-08-27T10:35:39;4.40;;;1.40;;
54271;SDS011;40184;53.362;5.216;2022-08-27T10:41:06;5.18;;;1.50;;
54271;SDS011;40184;53.362;5.216;2022-08-27T10:49:16;4.40;;;1.45;;
54271;SDS011;40184;53.362;5.216;2022-08-27T10:54:46;5.07;;;1.50;;
54271;SDS011;40184;53.362;5.216;2022-08-27T10:57:42;5.40;;;2.33;;
54271;SDS011;40184;53.362;5.216;2022-08-27T11:00:16;6.22;;;1.52;;
54271;SDS011;40184;53.362;5.216;2022-08-27T11:02:47;4.78;;;1.85;;
54271;SDS011;40184;53.362;5.216;2022-08-27T11:05:35;2.85;;;1.45;;
54271;SDS011;40184;53.362;5.216;2022-08-27T11:08:19;4.18;;;1.77;;
54271;SDS011;40184;53.362;5.216;2022-08-27T11:11:05;6.00;;;2.05;;
54271;SDS011;40184;53.362;5.216;2022-08-27T11:13:36;7.32;;;1.63;;
54271;SDS011;40184;53.362;5.216;2022-08-27T11:18:44;6.72;;;2.20;;
54271;SDS011;40184;53.362;5.216;2022-08-27T11:24:00;7.07;;;1.80;;
54271;SDS011;40184;53.362;5.216;2022-08-27T11:26:35;7.13;;;1.80;;
54271;SDS011;40184;53.362;5.216;2022-08-27T11:29:08;3.97;;;1.77;;
54271;SDS011;40184;53.362;5.216;2022-08-27T11:32:02;5.82;;;1.90;;
54271;SDS011;40184;53.362;5.216;2022-08-27T11:34:36;7.38;;;2.00;;
54271;SDS011;40184;53.362;5.216;2022-08-27T11:44:54;5.63;;;1.98;;
54271;SDS011;40184;53.362;5.216;2022-08-27T11:47:27;7.10;;;2.03;;
54271;SDS011;40184;53.362;5.216;2022-08-27T11:49:54;6.15;;;2.10;;
54271;SDS011;40184;53.362;5.216;2022-08-27T11:52:29;9.48;;;2.88;;
54271;SDS011;40184;53.362;5.216;2022-08-27T11:57:43;8.57;;;2.15;;
54271;SDS011;40184;53.362;5.216;2022-08-27T12:00:12;4.43;;;1.55;;
54271;SDS011;40184;53.362;5.216;2022-08-27T12:02:59;9.90;;;2.50;;
54271;SDS011;40184;53.362;5.216;2022-08-27T12:08:10;3.55;;;1.45;;
54271;SDS011;40184;53.362;5.216;2022-08-27T12:10:40;5.55;;;1.90;;
54271;SDS011;40184;53.362;5.216;2022-08-27T12:13:24;4.45;;;1.67;;
54271;SDS011;40184;53.362;5.216;2022-08-27T12:26:35;7.88;;;2.50;;
54271;SDS011;40184;53.362;5.216;2022-08-27T12:32:02;7.97;;;2.05;;
54271;SDS011;40184;53.362;5.216;2022-08-27T12:37:25;6.82;;;1.58;;
54271;SDS011;40184;53.362;5.216;2022-08-27T12:39:54;7.22;;;1.70;;
54271;SDS011;40184;53.362;5.216;2022-08-27T12:42:22;4.57;;;1.92;;
54271;SDS011;40184;53.362;5.216;2022-08-27T12:44:55;2.53;;;1.10;;
54271;SDS011;40184;53.362;5.216;2022-08-27T12:47:22;5.30;;;2.05;;
54271;SDS011;40184;53.362;5.216;2022-08-27T12:49:55;2.53;;;1.40;;
54271;SDS011;40184;53.362;5.216;2022-08-27T12:52:29;9.43;;;1.95;;
54271;SDS011;40184;53.362;5.216;2022-08-27T12:55:16;5.32;;;2.05;;
54271;SDS011;40184;53.362;5.216;2022-08-27T12:57:52;4.18;;;1.65;;
54271;SDS011;40184;53.362;5.216;2022-08-27T13:00:31;10.70;;;2.55;;
54271;SDS011;40184;53.362;5.216;2022-08-27T13:06:00;2.55;;;1.60;;
54271;SDS011;40184;53.362;5.216;2022-08-27T13:08:32;6.63;;;1.52;;
54271;SDS011;40184;53.362;5.216;2022-08-27T13:11:06;5.45;;;1.63;;
54271;SDS011;40184;53.362;5.216;2022-08-27T13:13:34;8.82;;;2.30;;
54271;SDS011;40184;53.362;5.216;2022-08-27T13:16:01;4.25;;;1.70;;
54271;SDS011;40184;53.362;5.216;2022-08-27T13:18:28;5.47;;;2.03;;
54271;SDS011;40184;53.362;5.216;2022-08-27T13:21:02;7.97;;;1.63;;
54271;SDS011;40184;53.362;5.216;2022-08-27T13:23:51;6.78;;;1.98;;
54271;SDS011;40184;53.362;5.216;2022-08-27T13:26:23;5.10;;;2.50;;
54271;SDS011;40184;53.362;5.216;2022-08-27T13:28:50;6.97;;;1.98;;
54271;SDS011;40184;53.362;5.216;2022-08-27T13:31:17;3.40;;;1.65;;
54271;SDS011;40184;53.362;5.216;2022-08-27T13:33:44;6.13;;;2.08;;
54271;SDS011;40184;53.362;5.216;2022-08-27T13:36:11;5.30;;;2.58;;
54271;SDS011;40184;53.362;5.216;2022-08-27T13:38:39;7.57;;;2.67;;
54271;SDS011;40184;53.362;5.216;2022-08-27T13:46:05;10.52;;;2.30;;
54271;SDS011;40184;53.362;5.216;2022-08-27T13:48:34;4.55;;;2.30;;
54271;SDS011;40184;53.362;5.216;2022-08-27T13:51:00;6.63;;;2.33;;
54271;SDS011;40184;53.362;5.216;2022-08-27T13:53:28;4.68;;;2.47;;
54271;SDS011;40184;53.362;5.216;2022-08-27T13:56:24;7.28;;;3.13;;
54271;SDS011;40184;53.362;5.216;2022-08-27T13:58:52;7.80;;;2.35;;
54271;SDS011;40184;53.362;5.216;2022-08-27T14:01:25;6.25;;;2.72;;
54271;SDS011;40184;53.362;5.216;2022-08-27T14:06:32;6.43;;;2.83;;
54271;SDS011;40184;53.362;5.216;2022-08-27T14:09:39;6.68;;;2.65;;
54271;SDS011;40184;53.362;5.216;2022-08-27T14:12:03;5.70;;;2.08;;
54271;SDS011;40184;53.362;5.216;2022-08-27T14:14:36;4.70;;;2.50;;
54271;SDS011;40184;53.362;5.216;2022-08-27T14:17:04;8.23;;;2.33;;
54271;SDS011;40184;53.362;5.216;2022-08-27T14:19:33;6.93;;;2.53;;
54271;SDS011;40184;53.362;5.216;2022-08-27T14:21:59;6.63;;;2.60;;
54271;SDS011;40184;53.362;5.216;2022-08-27T14:24:25;8.60;;;3.03;;
54271;SDS011;40184;53.362;5.216;2022-08-27T14:26:53;9.25;;;3.28;;
54271;SDS011;40184;53.362;5.216;2022-08-27T14:29:26;6.10;;;3.00;;
54271;SDS011;40184;53.362;5.216;2022-08-27T14:31:52;7.53;;;2.75;;
54271;SDS011;40184;53.362;5.216;2022-08-27T14:34:17;9.02;;;2.90;;
54271;SDS011;40184;53.362;5.216;2022-08-27T14:36:43;7.03;;;3.10;;
54271;SDS011;40184;53.362;5.216;2022-08-27T14:39:09;7.28;;;3.15;;
54271;SDS011;40184;53.362;5.216;2022-08-27T14:41:36;5.55;;;3.15;;
54271;SDS011;40184;53.362;5.216;2022-08-27T14:44:02;7.40;;;2.92;;
54271;SDS011;40184;53.362;5.216;2022-08-27T14:46:29;8.45;;;3.50;;
54271;SDS011;40184;53.362;5.216;2022-08-27T14:48:57;10.55;;;3.60;;
54271;SDS011;40184;53.362;5.216;2022-08-27T14:51:28;8.57;;;2.78;;
54271;SDS011;40184;53.362;5.216;2022-08-27T14:53:56;8.95;;;3.67;;
54271;SDS011;40184;53.362;5.216;2022-08-27T14:56:22;7.30;;;3.55;;
54271;SDS011;40184;53.362;5.216;2022-08-27T14:58:49;5.57;;;3.08;;
54271;SDS011;40184;53.362;5.216;2022-08-27T15:01:17;7.82;;;3.67;;
54271;SDS011;40184;53.362;5.216;2022-08-27T15:03:47;9.10;;;3.17;;
54271;SDS011;40184;53.362;5.216;2022-08-27T15:06:14;8.63;;;3.25;;
54271;SDS011;40184;53.362;5.216;2022-08-27T15:08:42;7.72;;;2.85;;
54271;SDS011;40184;53.362;5.216;2022-08-27T15:11:18;7.90;;;3.17;;
54271;SDS011;40184;53.362;5.216;2022-08-27T15:13:49;17.88;;;10.18;;
54271;SDS011;40184;53.362;5.216;2022-08-27T15:16:24;15.15;;;10.98;;
54271;SDS011;40184;53.362;5.216;2022-08-27T15:18:54;12.68;;;4.65;;
54271;SDS011;40184;53.362;5.216;2022-08-27T15:21:20;11.00;;;3.88;;
54271;SDS011;40184;53.362;5.216;2022-08-27T15:23:47;11.35;;;3.60;;
54271;SDS011;40184;53.362;5.216;2022-08-27T15:26:14;7.53;;;3.35;;
54271;SDS011;40184;53.362;5.216;2022-08-27T15:28:39;5.47;;;3.15;;
54271;SDS011;40184;53.362;5.216;2022-08-27T15:31:05;9.70;;;3.13;;
54271;SDS011;40184;53.362;5.216;2022-08-27T15:33:31;7.50;;;3.47;;
54271;SDS011;40184;53.362;5.216;2022-08-27T15:35:57;9.15;;;3.60;;
54271;SDS011;40184;53.362;5.216;2022-08-27T15:38:22;7.82;;;3.28;;
54271;SDS011;40184;53.362;5.216;2022-08-27T15:40:48;5.38;;;2.97;;
54271;SDS011;40184;53.362;5.216;2022-08-27T15:43:15;10.52;;;3.90;;
54271;SDS011;40184;53.362;5.216;2022-08-27T15:45:41;6.50;;;3.50;;
54271;SDS011;40184;53.362;5.216;2022-08-27T15:48:07;13.38;;;4.40;;
54271;SDS011;40184;53.362;5.216;2022-08-27T15:50:34;10.80;;;3.22;;
54271;SDS011;40184;53.362;5.216;2022-08-27T15:53:01;13.02;;;4.15;;
54271;SDS011;40184;53.362;5.216;2022-08-27T15:55:31;9.25;;;3.25;;
54271;SDS011;40184;53.362;5.216;2022-08-27T15:57:59;8.02;;;3.58;;
54271;SDS011;40184;53.362;5.216;2022-08-27T16:00:26;10.93;;;4.22;;
54271;SDS011;40184;53.362;5.216;2022-08-27T16:02:54;6.97;;;4.25;;
54271;SDS011;40184;53.362;5.216;2022-08-27T16:05:21;13.48;;;3.35;;
54271;SDS011;40184;53.362;5.216;2022-08-27T16:07:47;12.60;;;4.25;;
54271;SDS011;40184;53.362;5.216;2022-08-27T16:10:13;11.52;;;3.90;;
54271;SDS011;40184;53.362;5.216;2022-08-27T16:12:39;8.40;;;3.65;;
54271;SDS011;40184;53.362;5.216;2022-08-27T16:15:05;10.50;;;3.80;;
54271;SDS011;40184;53.362;5.216;2022-08-27T16:17:32;7.25;;;3.03;;
54271;SDS011;40184;53.362;5.216;2022-08-27T16:19:59;8.40;;;4.00;;
54271;SDS011;40184;53.362;5.216;2022-08-27T16:22:25;13.93;;;3.33;;
54271;SDS011;40184;53.362;5.216;2022-08-27T16:24:50;12.13;;;3.42;;
54271;SDS011;40184;53.362;5.216;2022-08-27T16:27:16;7.78;;;3.10;;
54271;SDS011;40184;53.362;5.216;2022-08-27T16:29:41;9.73;;;2.67;;